createdAt,value
2018-06-19T00:01:41.708Z,17.80
2018-06-19T00:04:09.872Z,17.80
2018-06-19T00:09:08.256Z,17.80
2018-06-19T00:11:36.440Z,17.80
2018-06-19T00:16:33.104Z,17.90
2018-06-19T00:19:02.058Z,17.90
2018-06-19T00:21:34.868Z,17.80
2018-06-19T00:26:31.296Z,17.70
2018-06-19T00:29:00.042Z,17.60
2018-06-19T00:31:28.365Z,17.50
2018-06-19T00:33:56.483Z,17.50
2018-06-19T00:36:24.637Z,17.50
2018-06-19T00:38:52.814Z,17.50
2018-06-19T00:41:21.089Z,17.50
2018-06-19T00:43:49.356Z,17.50
2018-06-19T00:46:19.996Z,17.40
2018-06-19T00:48:48.175Z,17.40
2018-06-19T00:51:16.296Z,17.40
2018-06-19T00:58:52.118Z,17.50
2018-06-19T01:01:20.365Z,17.50
2018-06-19T01:06:16.676Z,17.60
2018-06-19T01:08:44.810Z,17.60
2018-06-19T01:11:12.963Z,17.60
2018-06-19T01:13:41.092Z,17.60
2018-06-19T01:16:09.534Z,17.60
2018-06-19T01:18:37.703Z,17.50
2018-06-19T01:21:05.944Z,17.40
2018-06-19T01:26:03.119Z,17.30
2018-06-19T01:28:31.230Z,17.30
2018-06-19T01:30:59.416Z,17.30
2018-06-19T01:33:27.566Z,17.30
2018-06-19T01:35:55.763Z,17.30
2018-06-19T01:38:23.945Z,17.30
2018-06-19T01:40:52.153Z,17.30
2018-06-19T01:43:20.308Z,17.30
2018-06-19T01:48:16.611Z,17.20
2018-06-19T01:50:44.763Z,17.20
2018-06-19T01:53:12.979Z,17.20
2018-06-19T01:55:41.253Z,17.20
2018-06-19T01:58:09.405Z,17.30
2018-06-19T02:00:37.680Z,17.30
2018-06-19T02:03:05.949Z,17.40
2018-06-19T02:05:34.130Z,17.30
2018-06-19T02:08:02.286Z,17.30
2018-06-19T02:10:30.541Z,17.40
2018-06-19T02:12:59.028Z,17.40
2018-06-19T02:15:27.174Z,17.50
2018-06-19T02:17:55.370Z,17.50
2018-06-19T02:20:23.576Z,17.60
2018-06-19T02:22:51.803Z,17.50
2018-06-19T02:25:19.975Z,17.50
2018-06-19T02:27:48.136Z,17.40
2018-06-19T02:32:44.718Z,17.40
2018-06-19T02:35:12.947Z,17.50
2018-06-19T02:37:41.105Z,17.60
2018-06-19T02:40:09.227Z,17.60
2018-06-19T02:42:37.398Z,17.60
2018-06-19T02:45:05.888Z,17.60
2018-06-19T02:47:34.080Z,17.60
2018-06-19T02:50:02.353Z,17.70
2018-06-19T02:52:30.548Z,17.80
2018-06-19T02:54:58.689Z,17.90
2018-06-19T02:57:26.790Z,17.90
2018-06-19T02:59:54.959Z,17.90
2018-06-19T03:02:23.156Z,17.90
2018-06-19T03:04:51.341Z,17.80
2018-06-19T03:07:19.453Z,17.80
2018-06-19T03:09:47.604Z,17.90
2018-06-19T03:12:15.758Z,17.90
2018-06-19T03:14:43.881Z,17.80
2018-06-19T03:17:11.987Z,17.80
2018-06-19T03:19:40.195Z,17.90
2018-06-19T03:22:08.437Z,17.90
2018-06-19T03:24:36.611Z,17.90
2018-06-19T03:27:04.776Z,18.00
2018-06-19T03:29:33.022Z,17.90
2018-06-19T03:32:01.184Z,17.90
2018-06-19T03:34:29.351Z,17.90
2018-06-19T03:36:57.577Z,17.80
2018-06-19T03:41:53.772Z,17.90
2018-06-19T03:44:21.911Z,18.00
2018-06-19T03:46:50.074Z,18.00
2018-06-19T03:51:46.339Z,18.10
2018-06-19T03:54:14.466Z,18.10
2018-06-19T03:56:42.588Z,18.20
2018-06-19T03:59:10.759Z,18.30
2018-06-19T04:01:38.971Z,18.40
2018-06-19T04:04:07.173Z,18.40
2018-06-19T04:06:36.041Z,18.50
2018-06-19T04:09:06.449Z,18.50
2018-06-19T04:11:34.569Z,18.50
2018-06-19T04:14:02.793Z,18.50
2018-06-19T04:16:30.940Z,18.40
2018-06-19T04:18:59.100Z,18.40
2018-06-19T04:21:27.262Z,18.50
2018-06-19T04:23:55.377Z,18.40
2018-06-19T04:26:23.573Z,18.50
2018-06-19T04:28:51.780Z,18.50
2018-06-19T04:31:19.939Z,18.50
2018-06-19T04:33:48.133Z,18.50
2018-06-19T04:36:16.359Z,18.50
2018-06-19T04:38:44.535Z,18.60
2018-06-19T04:41:12.677Z,18.70
2018-06-19T04:43:40.869Z,18.70
2018-06-19T04:46:08.973Z,18.70
2018-06-19T04:53:33.260Z,18.70
2018-06-19T04:56:01.426Z,18.60
2018-06-19T04:58:29.580Z,18.60
2018-06-19T05:00:57.726Z,18.60
2018-06-19T05:03:25.922Z,18.70
2018-06-19T05:05:54.223Z,18.70
2018-06-19T05:08:22.388Z,18.70
2018-06-19T05:13:18.668Z,18.80
2018-06-19T05:18:14.916Z,18.70
2018-06-19T05:20:43.164Z,18.70
2018-06-19T05:23:11.338Z,18.70
2018-06-19T05:28:07.584Z,18.70
2018-06-19T05:30:35.695Z,18.80
2018-06-19T05:33:03.894Z,18.80
2018-06-19T05:38:00.097Z,18.80
2018-06-19T05:40:28.339Z,18.90
2018-06-19T05:42:56.491Z,19.00
2018-06-19T05:45:24.660Z,19.00
2018-06-19T05:47:52.776Z,19.10
2018-06-19T05:50:21.045Z,19.10
2018-06-19T05:52:49.313Z,19.10
2018-06-19T05:55:17.467Z,19.10
2018-06-19T05:57:45.640Z,19.20
2018-06-19T06:00:13.963Z,19.10
2018-06-19T06:02:42.103Z,19.20
2018-06-19T06:05:10.349Z,19.30
2018-06-19T06:07:38.479Z,19.30
2018-06-19T06:10:06.677Z,19.20
2018-06-19T06:12:34.866Z,19.30
2018-06-19T06:15:03.108Z,19.30
2018-06-19T06:17:31.309Z,19.40
2018-06-19T06:22:27.571Z,19.50
2018-06-19T06:24:58.570Z,19.50
2018-06-19T06:27:26.718Z,19.60
2018-06-19T06:32:23.026Z,19.90
2018-06-19T06:34:51.268Z,19.90
2018-06-19T06:37:19.416Z,20.10
2018-06-19T06:39:47.628Z,20.10
2018-06-19T06:42:15.854Z,20.20
2018-06-19T06:44:44.114Z,20.20
2018-06-19T06:47:12.268Z,20.20
2018-06-19T06:49:40.431Z,20.40
2018-06-19T06:52:08.565Z,20.30
2018-06-19T06:54:36.719Z,20.40
2018-06-19T06:57:05.047Z,20.50
2018-06-19T06:59:33.178Z,20.50
2018-06-19T07:02:01.363Z,20.50
2018-06-19T07:04:29.591Z,20.50
2018-06-19T07:09:26.654Z,20.30
2018-06-19T07:11:54.905Z,20.30
2018-06-19T07:14:22.999Z,20.30
2018-06-19T07:19:19.313Z,20.30
2018-06-19T07:21:47.570Z,20.40
2018-06-19T07:24:16.376Z,20.60
2018-06-19T07:26:44.669Z,20.80
2018-06-19T07:29:12.823Z,21.10
2018-06-19T07:31:40.966Z,21.20
2018-06-19T07:34:09.271Z,21.30
2018-06-19T07:36:37.503Z,21.30
2018-06-19T07:39:07.948Z,21.20
2018-06-19T07:41:36.101Z,21.10
2018-06-19T07:46:32.332Z,21.20
2018-06-19T07:49:00.563Z,21.10
2018-06-19T07:51:28.734Z,21.00
2018-06-19T07:53:57.023Z,21.00
2018-06-19T07:56:25.152Z,21.00
2018-06-19T07:58:53.363Z,20.90
2018-06-19T08:01:21.604Z,21.00
2018-06-19T08:03:49.814Z,21.20
2018-06-19T08:06:18.034Z,21.40
2018-06-19T08:08:46.363Z,21.50
2018-06-19T08:11:14.507Z,21.50
2018-06-19T08:13:42.688Z,21.50
2018-06-19T08:16:11.105Z,21.40
2018-06-19T08:18:39.410Z,21.40
2018-06-19T08:21:07.634Z,21.50
2018-06-19T08:23:35.826Z,21.50
2018-06-19T08:26:04.089Z,21.50
2018-06-19T08:28:32.279Z,21.40
2018-06-19T08:31:00.555Z,21.40
2018-06-19T08:33:28.728Z,21.40
2018-06-19T08:38:25.334Z,21.10
2018-06-19T08:40:53.459Z,21.20
2018-06-19T08:43:21.654Z,21.10
2018-06-19T08:45:49.849Z,21.10
2018-06-19T08:48:17.986Z,21.20
2018-06-19T08:50:46.182Z,21.30
2018-06-19T08:53:14.376Z,21.40
2018-06-19T08:55:42.590Z,21.60
2018-06-19T09:00:38.924Z,22.00
2018-06-19T09:03:07.106Z,22.00
2018-06-19T09:08:04.408Z,22.20
2018-06-19T09:10:32.611Z,22.30
2018-06-19T09:13:00.795Z,22.40
2018-06-19T09:15:28.987Z,22.40
2018-06-19T09:17:57.205Z,22.20
2018-06-19T09:20:25.530Z,22.30
2018-06-19T09:22:53.715Z,22.40
2018-06-19T09:27:49.963Z,22.50
2018-06-19T09:30:18.196Z,22.40
2018-06-19T09:32:46.414Z,22.40
2018-06-19T09:37:43.704Z,22.30
2018-06-19T09:40:11.869Z,22.40
2018-06-19T09:42:40.070Z,22.30
2018-06-19T09:45:08.400Z,22.30
2018-06-19T09:47:36.611Z,22.30
2018-06-19T09:50:05.083Z,22.00
2018-06-19T09:52:33.405Z,21.80
2018-06-19T09:55:01.775Z,21.90
2018-06-19T09:57:30.054Z,22.20
2018-06-19T10:04:54.899Z,22.70
2018-06-19T10:09:52.161Z,22.40
2018-06-19T10:14:48.957Z,22.50
2018-06-19T10:17:17.419Z,22.60
2018-06-19T10:19:45.740Z,22.60
2018-06-19T10:22:13.980Z,22.60
2018-06-19T10:24:42.196Z,22.60
2018-06-19T10:27:10.436Z,22.50
2018-06-19T10:29:38.629Z,22.60
2018-06-19T10:32:06.780Z,22.70
2018-06-19T10:34:34.989Z,22.80
2018-06-19T10:37:03.163Z,22.60
2018-06-19T10:39:31.348Z,22.80
2018-06-19T10:41:59.504Z,22.80
2018-06-19T10:44:27.678Z,23.00
2018-06-19T10:46:55.872Z,23.00
2018-06-19T10:49:24.084Z,22.80
2018-06-19T10:51:52.278Z,22.70
2018-06-19T10:54:20.449Z,22.70
2018-06-19T10:56:48.705Z,22.60
2018-06-19T10:59:16.977Z,22.60
2018-06-19T11:01:45.233Z,22.80
2018-06-19T11:04:13.468Z,22.90
2018-06-19T11:06:41.669Z,22.80
2018-06-19T11:11:39.360Z,22.80
2018-06-19T11:14:07.643Z,23.00
2018-06-19T11:16:36.027Z,23.10
2018-06-19T11:19:04.278Z,23.30
2018-06-19T11:21:32.457Z,23.60
2018-06-19T11:24:00.819Z,23.80
2018-06-19T11:26:28.983Z,23.70
2018-06-19T11:28:57.234Z,23.80
2018-06-19T11:31:25.327Z,23.80
2018-06-19T11:33:53.519Z,23.90
2018-06-19T11:38:49.768Z,23.60
2018-06-19T11:43:46.092Z,23.10
2018-06-19T11:46:14.387Z,23.10
2018-06-19T11:48:42.632Z,23.20
2018-06-19T11:51:10.834Z,23.30
2018-06-19T11:53:38.926Z,23.40
2018-06-19T11:56:07.065Z,23.60
2018-06-19T12:01:03.501Z,23.90
2018-06-19T12:03:31.767Z,24.00
2018-06-19T12:05:59.935Z,24.00
2018-06-19T12:08:28.128Z,24.10
2018-06-19T12:13:24.591Z,24.20
2018-06-19T12:15:52.785Z,24.30
2018-06-19T12:18:21.051Z,24.40
2018-06-19T12:20:49.419Z,24.60
2018-06-19T12:23:18.189Z,24.60
2018-06-19T12:28:14.463Z,24.30
2018-06-19T12:30:42.672Z,24.10
2018-06-19T12:33:10.933Z,24.10
2018-06-19T12:35:39.111Z,24.20
2018-06-19T12:38:07.342Z,24.20
2018-06-19T12:40:35.515Z,24.30
2018-06-19T12:43:03.797Z,24.40
2018-06-19T12:45:31.926Z,24.40
2018-06-19T12:48:00.066Z,24.10
2018-06-19T12:50:45.183Z,24.30
2018-06-19T12:53:30.490Z,24.20
2018-06-19T12:56:14.587Z,24.40
2018-06-19T12:58:43.658Z,24.50
2018-06-19T13:01:11.833Z,24.80
2018-06-19T13:03:56.767Z,24.70
2018-06-19T13:06:33.529Z,24.70
2018-06-19T13:09:01.703Z,24.80
2018-06-19T13:11:30.513Z,24.90
2018-06-19T13:14:15.776Z,24.90
2018-06-19T13:17:01.059Z,24.80
2018-06-19T13:19:46.167Z,24.80
2018-06-19T13:22:14.342Z,25.00
2018-06-19T13:24:42.583Z,25.00
2018-06-19T13:27:10.778Z,25.10
2018-06-19T13:29:57.148Z,25.10
2018-06-19T13:32:25.533Z,25.10
2018-06-19T13:34:54.015Z,25.40
2018-06-19T13:37:22.222Z,25.40
2018-06-19T13:41:14.262Z,25.50
2018-06-19T13:44:01.017Z,25.60
2018-06-19T13:46:29.268Z,25.70
2018-06-19T13:48:57.450Z,25.80
2018-06-19T13:51:25.775Z,26.00
2018-06-19T13:53:53.891Z,26.10
2018-06-19T13:57:39.139Z,26.10
2018-06-19T14:00:13.538Z,26.20
2018-06-19T14:02:41.757Z,26.30
2018-06-19T14:05:11.380Z,26.40
2018-06-19T14:07:53.819Z,26.50
2018-06-19T14:13:12.447Z,26.30
2018-06-19T14:15:43.848Z,26.00
2018-06-19T14:18:12.737Z,26.40
2018-06-19T14:20:41.475Z,26.20
2018-06-19T14:23:09.943Z,26.20
2018-06-19T14:25:38.147Z,26.10
2018-06-19T14:28:06.347Z,26.20
2018-06-19T14:30:34.566Z,26.40
2018-06-19T14:35:30.884Z,26.80
2018-06-19T14:37:59.030Z,26.80
2018-06-19T14:40:27.168Z,27.00
2018-06-19T14:42:55.339Z,27.10
2018-06-19T14:45:23.962Z,27.00
2018-06-19T14:47:52.172Z,26.80
2018-06-19T14:50:20.401Z,26.80
2018-06-19T14:52:48.567Z,26.70
2018-06-19T14:55:16.784Z,26.60
2018-06-19T15:00:12.995Z,26.80
2018-06-19T15:02:41.254Z,27.00
2018-06-19T15:05:09.473Z,27.00
2018-06-19T15:07:42.223Z,26.90
2018-06-19T15:10:10.481Z,26.90
2018-06-19T15:12:38.766Z,26.70
2018-06-19T15:15:07.029Z,26.70
2018-06-19T15:17:35.231Z,26.70
2018-06-19T15:20:03.612Z,26.50
2018-06-19T15:22:31.819Z,26.50
2018-06-19T15:27:28.579Z,26.50
2018-06-19T15:29:56.655Z,26.50
2018-06-19T15:32:24.822Z,26.50
2018-06-19T15:34:53.051Z,26.50
2018-06-19T15:37:21.328Z,26.60
2018-06-19T15:39:49.513Z,26.50
2018-06-19T15:44:45.707Z,26.50
2018-06-19T15:47:13.873Z,26.40
2018-06-19T15:49:42.114Z,26.40
2018-06-19T15:52:10.280Z,26.50
2018-06-19T15:54:38.500Z,26.60
2018-06-19T15:57:06.708Z,26.70
2018-06-19T15:59:34.883Z,26.70
2018-06-19T16:02:03.032Z,26.60
2018-06-19T16:04:31.229Z,26.60
2018-06-19T16:06:59.341Z,26.40
2018-06-19T16:09:27.496Z,26.50
2018-06-19T16:11:55.623Z,26.50
2018-06-19T16:14:23.791Z,26.50
2018-06-19T16:16:52.572Z,26.50
2018-06-19T16:19:20.781Z,26.60
2018-06-19T16:21:48.993Z,26.60
2018-06-19T16:24:17.116Z,26.70
2018-06-19T16:26:45.275Z,26.60
2018-06-19T16:29:13.961Z,26.60
2018-06-19T16:31:42.106Z,26.60
2018-06-19T16:34:10.275Z,26.40
2018-06-19T16:36:38.448Z,26.30
2018-06-19T16:39:08.875Z,26.20
2018-06-19T16:41:37.126Z,26.10
2018-06-19T16:44:05.465Z,26.10
2018-06-19T16:46:33.820Z,26.20
2018-06-19T16:49:02.003Z,26.10
2018-06-19T16:51:30.465Z,26.20
2018-06-19T16:53:58.730Z,26.20
2018-06-19T16:56:26.992Z,26.30
2018-06-19T16:58:55.211Z,26.30
2018-06-19T17:01:23.476Z,25.90
2018-06-19T17:03:51.587Z,25.90
2018-06-19T17:06:19.897Z,25.90
2018-06-19T17:08:48.089Z,25.90
2018-06-19T17:11:16.216Z,26.00
2018-06-19T17:13:44.402Z,25.90
2018-06-19T17:23:36.943Z,25.80
2018-06-19T17:26:05.276Z,25.80
2018-06-19T17:28:34.442Z,25.80
2018-06-19T17:31:02.689Z,25.70
2018-06-19T17:33:30.874Z,25.70
2018-06-19T17:38:27.530Z,25.60
2018-06-19T17:40:55.825Z,25.60
2018-06-19T17:45:52.141Z,25.40
2018-06-19T17:48:20.376Z,25.40
2018-06-19T17:50:48.734Z,25.40
2018-06-19T17:53:16.960Z,25.30
2018-06-19T17:55:45.224Z,25.20
2018-06-19T17:58:13.387Z,25.20
2018-06-19T18:00:41.532Z,25.20
2018-06-19T18:03:09.801Z,25.20
2018-06-19T18:05:38.899Z,25.20
2018-06-19T18:08:06.995Z,25.20
2018-06-19T18:10:35.574Z,25.20
2018-06-19T18:13:03.759Z,25.20
2018-06-19T18:15:32.311Z,25.20
2018-06-19T18:18:00.474Z,25.20
2018-06-19T18:20:28.668Z,25.00
2018-06-19T18:22:56.911Z,25.00
2018-06-19T18:25:25.116Z,24.90
2018-06-19T18:27:53.353Z,24.90
2018-06-19T18:30:21.569Z,24.90
2018-06-19T18:32:49.733Z,24.90
2018-06-19T18:35:17.941Z,24.90
2018-06-19T18:37:46.109Z,24.80
2018-06-19T18:40:14.289Z,24.80
2018-06-19T18:45:10.582Z,24.70
2018-06-19T18:47:38.784Z,24.70
2018-06-19T18:50:07.071Z,24.70
2018-06-19T18:52:36.069Z,24.70
2018-06-19T18:55:04.342Z,24.60
2018-06-19T19:00:00.713Z,24.60
2018-06-19T19:04:57.064Z,24.60
2018-06-19T19:07:25.284Z,24.50
2018-06-19T19:09:59.013Z,24.40
2018-06-19T19:12:27.207Z,24.40
2018-06-19T19:15:01.005Z,24.30
2018-06-19T19:17:34.835Z,24.30
2018-06-19T19:20:03.154Z,24.30
2018-06-19T19:22:31.408Z,24.30
2018-06-19T19:24:59.596Z,24.20
2018-06-19T19:27:33.577Z,24.20
2018-06-19T19:30:01.851Z,24.10
2018-06-19T19:32:30.282Z,24.10
2018-06-19T19:34:58.617Z,24.10
2018-06-19T19:37:32.503Z,24.00
2018-06-19T19:40:00.779Z,23.90
2018-06-19T19:42:29.064Z,23.90
2018-06-19T19:44:57.300Z,23.80
2018-06-19T19:49:59.312Z,23.80
2018-06-19T19:52:27.629Z,23.70
2018-06-19T19:54:55.896Z,23.70
2018-06-19T19:57:29.603Z,23.70
2018-06-19T19:59:58.001Z,23.80
2018-06-19T20:02:26.301Z,23.70
2018-06-19T20:04:54.591Z,23.70
2018-06-19T20:07:22.816Z,23.60
2018-06-19T20:12:19.171Z,23.40
2018-06-19T20:14:49.240Z,23.30
2018-06-19T20:17:17.687Z,23.20
2018-06-19T20:19:46.830Z,23.20
2018-06-19T20:22:15.109Z,23.20
2018-06-19T20:24:43.291Z,23.10
2018-06-19T20:27:11.516Z,23.10
2018-06-19T20:29:39.994Z,23.00
2018-06-19T20:32:08.245Z,22.90
2018-06-19T20:34:36.496Z,22.90
2018-06-19T20:37:04.942Z,22.90
2018-06-19T20:39:34.116Z,22.90
2018-06-19T20:42:02.282Z,22.90
2018-06-19T20:44:30.541Z,22.80
2018-06-19T20:46:58.774Z,22.80
2018-06-19T20:51:55.242Z,22.60
2018-06-19T20:54:23.506Z,22.50
2018-06-19T20:56:51.662Z,22.30
2018-06-19T20:59:20.188Z,22.30
2018-06-19T21:01:48.524Z,22.20
2018-06-19T21:04:16.711Z,22.10
2018-06-19T21:06:44.927Z,22.10
2018-06-19T21:09:13.140Z,22.10
2018-06-19T21:11:41.911Z,22.10
2018-06-19T21:14:10.086Z,22.10
2018-06-19T21:16:38.350Z,22.10
2018-06-19T21:19:06.513Z,22.10
2018-06-19T21:21:34.729Z,22.10
2018-06-19T21:24:02.876Z,22.10
2018-06-19T21:26:31.144Z,22.10
2018-06-19T21:28:59.432Z,22.10
2018-06-19T21:31:27.586Z,22.10
2018-06-19T21:33:55.770Z,22.10
2018-06-19T21:36:23.916Z,22.10
2018-06-19T21:38:52.220Z,22.10
2018-06-19T21:41:20.447Z,22.10
2018-06-19T21:43:48.638Z,22.10
2018-06-19T21:46:16.880Z,22.00
2018-06-19T21:48:45.572Z,22.00
2018-06-19T21:51:13.828Z,22.00
2018-06-19T21:53:42.060Z,22.10
2018-06-19T21:56:10.279Z,22.00
2018-06-19T21:58:38.437Z,21.80
2018-06-19T22:01:06.981Z,21.80
2018-06-19T22:03:35.145Z,21.80
2018-06-19T22:06:03.422Z,21.70
2018-06-19T22:11:05.576Z,21.60
2018-06-19T22:13:33.773Z,21.70
2018-06-19T22:16:01.987Z,21.70
2018-06-19T22:18:30.399Z,21.70
2018-06-19T22:20:58.640Z,21.70
2018-06-19T22:23:26.897Z,21.70
2018-06-19T22:25:55.109Z,21.70
2018-06-19T22:28:23.307Z,21.60
2018-06-19T22:30:51.519Z,21.60
2018-06-19T22:33:19.756Z,21.60
2018-06-19T22:38:16.051Z,21.40
2018-06-19T22:40:44.230Z,21.40
2018-06-19T22:43:12.384Z,21.40
2018-06-19T22:45:40.597Z,21.40
2018-06-19T22:48:08.831Z,21.30
2018-06-19T22:50:37.048Z,21.40
2018-06-19T22:53:05.435Z,21.40
2018-06-19T22:55:33.650Z,21.40
2018-06-19T22:58:01.827Z,21.40
2018-06-19T23:00:30.112Z,21.40
2018-06-19T23:03:02.418Z,21.40
2018-06-19T23:05:30.732Z,21.30
2018-06-19T23:07:59.151Z,21.20
2018-06-19T23:10:28.223Z,21.10
2018-06-19T23:12:56.556Z,21.00
2018-06-19T23:15:24.835Z,20.80
2018-06-19T23:20:21.557Z,20.70
2018-06-19T23:22:50.905Z,20.70
2018-06-19T23:25:19.532Z,20.70
2018-06-19T23:27:47.903Z,20.70
2018-06-19T23:30:17.117Z,20.70
2018-06-19T23:32:45.376Z,20.60
2018-06-19T23:35:13.588Z,20.60
2018-06-19T23:37:42.378Z,20.40
2018-06-19T23:40:10.546Z,20.30
2018-06-19T23:42:39.667Z,20.20
2018-06-19T23:45:07.927Z,20.10
2018-06-19T23:47:36.191Z,20.00
2018-06-19T23:50:04.424Z,19.90
2018-06-19T23:52:32.639Z,19.80
2018-06-19T23:55:00.780Z,19.90
2018-06-19T23:57:29.033Z,19.90
2018-06-19T23:59:57.248Z,20.00
